createdAt,value
2023-02-14T00:01:06.710Z,0.52
2023-02-14T00:03:33.943Z,1.50
2023-02-14T00:06:09.870Z,0.25
2023-02-14T00:08:37.459Z,1.65
2023-02-14T00:11:05.615Z,0.30
2023-02-14T00:13:32.797Z,0.52
2023-02-14T00:16:00.017Z,0.32
2023-02-14T00:18:45.507Z,0.75
2023-02-14T00:21:12.582Z,0.73
2023-02-14T00:23:39.766Z,0.25
2023-02-14T00:26:14.185Z,1.45
2023-02-14T00:28:43.450Z,4.78
2023-02-14T00:31:10.788Z,1.75
2023-02-14T00:33:38.099Z,1.77
2023-02-14T00:36:07.357Z,1.23
2023-02-14T00:38:35.938Z,0.28
2023-02-14T00:41:03.499Z,0.38
2023-02-14T00:43:30.723Z,0.20
2023-02-14T00:45:58.083Z,0.65
2023-02-14T00:48:25.263Z,1.38
2023-02-14T00:50:52.308Z,0.30
2023-02-14T00:53:19.430Z,0.20
2023-02-14T00:55:47.217Z,4.70
2023-02-14T00:58:15.308Z,1.27
2023-02-14T01:00:42.417Z,0.50
2023-02-14T01:03:09.544Z,1.00
2023-02-14T01:05:36.635Z,1.70
2023-02-14T01:08:05.333Z,1.58
2023-02-14T01:10:32.570Z,1.10
2023-02-14T01:12:59.748Z,0.17
2023-02-14T01:15:28.041Z,1.45
2023-02-14T01:17:55.058Z,3.08
2023-02-14T01:20:22.345Z,0.47
2023-02-14T01:22:49.437Z,0.35
2023-02-14T01:25:16.721Z,3.03
2023-02-14T01:27:43.875Z,0.55
2023-02-14T01:30:11.863Z,0.65
2023-02-14T01:32:39.088Z,2.08
2023-02-14T01:35:06.483Z,2.25
2023-02-14T01:37:33.527Z,15.57
2023-02-14T01:40:01.140Z,0.40
2023-02-14T01:42:28.392Z,1.00
2023-02-14T01:45:02.361Z,1.10
2023-02-14T01:47:36.976Z,0.75
2023-02-14T01:50:24.676Z,1.13
2023-02-14T01:52:58.025Z,0.10
2023-02-14T01:55:29.305Z,1.63
2023-02-14T01:58:14.411Z,1.33
2023-02-14T02:00:58.771Z,0.40
2023-02-14T02:03:36.151Z,0.43
2023-02-14T02:06:27.378Z,0.90
2023-02-14T02:09:24.235Z,4.57
2023-02-14T02:11:51.434Z,1.30
2023-02-14T02:14:21.173Z,0.93
2023-02-14T02:17:23.344Z,0.40
2023-02-14T02:20:11.545Z,2.08
2023-02-14T02:23:28.811Z,0.52
2023-02-14T02:25:58.680Z,0.25
2023-02-14T02:28:56.705Z,0.68
2023-02-14T02:31:42.507Z,0.35
2023-02-14T02:34:51.558Z,1.20
2023-02-14T02:37:31.737Z,0.73
2023-02-14T02:40:06.574Z,14.80
2023-02-14T02:42:53.982Z,1.92
2023-02-14T02:45:28.396Z,0.40
2023-02-14T02:48:08.013Z,0.95
2023-02-14T02:51:01.352Z,0.13
2023-02-14T02:53:43.572Z,2.28
2023-02-14T02:56:38.042Z,0.57
2023-02-14T02:59:18.902Z,0.40
2023-02-14T03:02:10.040Z,0.28
2023-02-14T03:05:06.979Z,0.65
2023-02-14T03:07:39.702Z,6.10
2023-02-14T03:10:16.127Z,0.30
2023-02-14T03:12:56.353Z,1.05
2023-02-14T03:15:29.471Z,1.33
2023-02-14T03:17:59.322Z,0.63
2023-02-14T03:21:04.106Z,0.55
2023-02-14T03:23:39.927Z,1.48
2023-02-14T03:26:27.434Z,0.57
2023-02-14T03:29:13.094Z,2.08
2023-02-14T03:32:11.287Z,0.30
2023-02-14T03:34:44.413Z,0.30
2023-02-14T03:37:16.175Z,3.28
2023-02-14T03:39:59.778Z,1.08
2023-02-14T03:42:33.537Z,2.97
2023-02-14T03:45:02.541Z,0.30
2023-02-14T03:47:34.504Z,0.30
2023-02-14T03:50:13.322Z,0.25
2023-02-14T03:52:41.294Z,1.98
2023-02-14T03:55:09.896Z,0.82
2023-02-14T03:57:53.690Z,0.30
2023-02-14T04:00:21.053Z,0.70
2023-02-14T04:02:53.477Z,0.88
2023-02-14T04:05:25.103Z,1.13
2023-02-14T04:07:56.322Z,0.32
2023-02-14T04:10:24.318Z,1.50
2023-02-14T04:12:52.121Z,0.80
2023-02-14T04:15:19.260Z,0.20
2023-02-14T04:18:05.082Z,0.10
2023-02-14T04:20:32.826Z,0.00
2023-02-14T04:23:02.308Z,0.35
2023-02-14T04:27:57.780Z,0.80
2023-02-14T04:30:25.146Z,0.30
2023-02-14T04:32:52.331Z,0.60
2023-02-14T04:35:19.642Z,1.50
2023-02-14T04:37:46.735Z,0.63
2023-02-14T04:40:17.487Z,0.60
2023-02-14T04:42:47.014Z,0.40
2023-02-14T04:45:18.073Z,0.85
2023-02-14T04:47:45.466Z,0.52
2023-02-14T04:50:13.497Z,3.53
2023-02-14T04:52:41.046Z,0.73
2023-02-14T04:56:25.648Z,1.85
2023-02-14T05:04:10.423Z,0.55
2023-02-14T05:07:06.339Z,3.35
2023-02-14T05:11:00.611Z,0.35
2023-02-14T05:13:49.113Z,0.75
2023-02-14T05:16:33.415Z,0.40
2023-02-14T05:22:22.195Z,0.73
2023-02-14T05:24:52.203Z,1.10
2023-02-14T05:27:19.315Z,0.40
2023-02-14T05:29:46.418Z,1.08
2023-02-14T05:32:16.348Z,0.65
2023-02-14T05:34:43.640Z,0.65
2023-02-14T05:37:10.665Z,0.20
2023-02-14T05:39:37.705Z,0.50
2023-02-14T05:42:04.809Z,1.60
2023-02-14T05:44:32.004Z,0.20
2023-02-14T05:46:59.020Z,0.30
2023-02-14T05:49:26.049Z,0.28
2023-02-14T05:51:53.157Z,0.13
2023-02-14T05:54:20.226Z,1.13
2023-02-14T05:56:47.168Z,0.35
2023-02-14T05:59:14.744Z,0.17
2023-02-14T06:01:41.752Z,2.65
2023-02-14T06:04:09.008Z,0.17
2023-02-14T06:06:36.798Z,0.40
2023-02-14T06:09:04.032Z,1.10
2023-02-14T06:11:31.111Z,0.93
2023-02-14T06:13:58.254Z,0.35
2023-02-14T06:16:25.271Z,0.15
2023-02-14T06:18:52.339Z,2.22
2023-02-14T06:21:19.421Z,0.20
2023-02-14T06:23:46.473Z,0.40
2023-02-14T06:26:14.134Z,1.23
2023-02-14T06:28:41.406Z,0.10
2023-02-14T06:31:08.699Z,0.93
2023-02-14T06:33:35.755Z,0.30
2023-02-14T06:36:02.787Z,0.20
2023-02-14T06:38:29.785Z,6.13
2023-02-14T06:41:06.461Z,0.35
2023-02-14T06:43:34.288Z,0.38
2023-02-14T06:46:02.252Z,0.28
2023-02-14T06:48:29.662Z,0.30
2023-02-14T06:50:57.937Z,1.50
2023-02-14T06:53:25.271Z,0.60
2023-02-14T06:55:52.552Z,1.30
2023-02-14T06:58:19.831Z,1.33
2023-02-14T07:00:47.378Z,0.45
2023-02-14T07:03:15.161Z,0.50
2023-02-14T07:05:42.650Z,1.02
2023-02-14T07:08:09.833Z,0.50
2023-02-14T07:10:37.236Z,0.82
2023-02-14T07:13:04.844Z,0.52
2023-02-14T07:15:32.182Z,2.55
2023-02-14T07:18:03.461Z,0.88
2023-02-14T07:20:30.698Z,2.67
2023-02-14T07:22:57.671Z,0.63
2023-02-14T07:25:24.730Z,0.40
2023-02-14T07:27:51.866Z,0.50
2023-02-14T07:30:19.095Z,0.75
2023-02-14T07:32:46.200Z,0.30
2023-02-14T07:35:15.256Z,1.17
2023-02-14T07:37:42.495Z,0.10
2023-02-14T07:40:14.718Z,0.20
2023-02-14T07:42:43.950Z,0.77
2023-02-14T07:45:21.031Z,0.65
2023-02-14T07:47:54.156Z,0.10
2023-02-14T07:50:23.237Z,1.30
2023-02-14T07:52:50.370Z,1.55
2023-02-14T07:55:17.638Z,0.40
2023-02-14T07:57:44.879Z,0.45
2023-02-14T08:00:12.730Z,0.10
2023-02-14T08:02:39.978Z,0.88
2023-02-14T08:05:07.855Z,0.90
2023-02-14T08:07:35.114Z,0.73
2023-02-14T08:10:02.267Z,0.80
2023-02-14T08:12:47.680Z,0.52
2023-02-14T08:15:33.283Z,0.10
2023-02-14T08:18:00.388Z,0.30
2023-02-14T08:20:27.483Z,0.32
2023-02-14T08:22:54.657Z,1.13
2023-02-14T08:25:21.705Z,0.20
2023-02-14T08:27:48.778Z,0.50
2023-02-14T08:30:16.226Z,1.23
2023-02-14T08:32:43.276Z,2.30
2023-02-14T08:35:10.427Z,0.30
2023-02-14T08:37:37.536Z,0.20
2023-02-14T08:40:05.036Z,0.20
2023-02-14T08:42:32.702Z,0.88
2023-02-14T08:44:59.944Z,0.20
2023-02-14T08:47:26.974Z,0.10
2023-02-14T08:49:54.072Z,0.25
2023-02-14T08:52:21.161Z,0.85
2023-02-14T08:54:48.395Z,0.20
2023-02-14T08:57:15.724Z,0.30
2023-02-14T08:59:42.859Z,0.10
2023-02-14T09:02:13.755Z,0.35
2023-02-14T09:04:40.857Z,0.20
2023-02-14T09:07:08.269Z,0.40
2023-02-14T09:09:35.366Z,0.40
2023-02-14T09:12:07.292Z,0.10
2023-02-14T09:14:44.676Z,0.52
2023-02-14T09:17:13.820Z,0.10
2023-02-14T09:19:40.940Z,0.28
2023-02-14T09:22:09.790Z,0.15
2023-02-14T09:24:38.519Z,0.32
2023-02-14T09:27:06.435Z,0.25
2023-02-14T09:29:33.986Z,0.90
2023-02-14T09:32:02.110Z,0.20
2023-02-14T09:34:48.765Z,0.20
2023-02-14T09:37:15.991Z,2.55
2023-02-14T09:39:42.961Z,0.40
2023-02-14T09:42:37.871Z,0.10
2023-02-14T09:45:24.201Z,0.30
2023-02-14T09:48:08.232Z,0.10
2023-02-14T09:50:56.250Z,0.45
2023-02-14T09:53:27.195Z,1.80
2023-02-14T09:56:04.358Z,0.20
2023-02-14T09:58:49.850Z,0.10
2023-02-14T10:01:28.708Z,0.65
2023-02-14T10:03:58.733Z,0.20
2023-02-14T10:06:41.016Z,0.30
2023-02-14T10:09:14.024Z,0.40
2023-02-14T10:11:45.649Z,0.10
2023-02-14T10:14:19.070Z,1.17
2023-02-14T10:17:25.121Z,0.55
2023-02-14T10:19:57.715Z,0.57
2023-02-14T10:22:53.757Z,0.40
2023-02-14T10:25:29.228Z,0.40
2023-02-14T10:27:58.994Z,0.28
2023-02-14T10:30:26.457Z,0.90
2023-02-14T10:33:04.615Z,1.08
2023-02-14T10:35:41.249Z,0.15
2023-02-14T10:38:36.745Z,0.55
2023-02-14T10:41:18.843Z,0.38
2023-02-14T10:44:13.630Z,2.38
2023-02-14T10:46:48.735Z,0.38
2023-02-14T10:50:09.712Z,0.63
2023-02-14T10:52:36.674Z,0.10
2023-02-14T10:55:32.465Z,0.15
2023-02-14T10:58:04.423Z,0.40
2023-02-14T11:00:35.507Z,0.00
2023-02-14T11:03:07.503Z,0.55
2023-02-14T11:05:47.606Z,0.17
2023-02-14T11:08:23.672Z,0.10
2023-02-14T11:10:53.646Z,0.15
2023-02-14T11:13:37.020Z,0.17
2023-02-14T11:16:08.971Z,0.85
2023-02-14T11:18:42.212Z,0.52
2023-02-14T11:21:15.085Z,0.10
2023-02-14T11:23:43.449Z,0.65
2023-02-14T11:26:31.734Z,0.40
2023-02-14T11:29:04.876Z,0.57
2023-02-14T11:31:46.189Z,1.17
2023-02-14T11:34:24.368Z,0.20
2023-02-14T11:36:51.659Z,0.20
2023-02-14T11:39:22.070Z,0.20
2023-02-14T11:44:24.885Z,0.20
2023-02-14T11:46:54.188Z,0.95
2023-02-14T11:49:28.454Z,0.43
2023-02-14T11:51:58.642Z,0.17
2023-02-14T11:54:28.919Z,0.40
2023-02-14T11:57:06.348Z,0.13
2023-02-14T11:59:46.634Z,0.43
2023-02-14T12:02:20.769Z,0.45
2023-02-14T12:04:53.074Z,0.10
2023-02-14T12:07:25.355Z,0.93
2023-02-14T12:10:11.191Z,0.10
2023-02-14T12:12:40.319Z,4.10
2023-02-14T12:15:54.294Z,0.20
2023-02-14T12:18:51.550Z,2.25
2023-02-14T12:21:44.988Z,0.70
2023-02-14T12:24:18.305Z,0.38
2023-02-14T12:27:26.174Z,0.50
2023-02-14T12:30:07.975Z,0.20
2023-02-14T12:32:35.751Z,1.27
2023-02-14T12:35:33.850Z,0.20
2023-02-14T12:38:42.526Z,0.32
2023-02-14T12:41:25.138Z,0.30
2023-02-14T12:44:11.350Z,0.73
2023-02-14T12:46:54.699Z,0.10
2023-02-14T12:49:28.310Z,1.00
2023-02-14T12:52:11.178Z,0.20
2023-02-14T12:54:47.251Z,0.32
2023-02-14T12:57:53.854Z,2.10
2023-02-14T13:00:39.645Z,1.15
2023-02-14T13:03:31.712Z,0.85
2023-02-14T13:06:17.114Z,1.55
2023-02-14T13:08:44.262Z,1.23
2023-02-14T13:11:39.084Z,0.63
2023-02-14T13:14:36.839Z,1.38
2023-02-14T13:17:37.971Z,4.20
2023-02-14T13:20:37.164Z,0.47
2023-02-14T13:23:35.013Z,0.73
2023-02-14T13:26:17.560Z,0.63
2023-02-14T13:28:58.366Z,1.63
2023-02-14T13:31:26.462Z,3.90
2023-02-14T13:34:02.438Z,0.38
2023-02-14T13:36:31.081Z,1.33
2023-02-14T13:38:59.482Z,0.88
2023-02-14T13:41:28.173Z,1.33
2023-02-14T13:44:01.798Z,0.45
2023-02-14T13:46:35.322Z,0.52
2023-02-14T13:49:23.430Z,0.20
2023-02-14T13:51:57.478Z,2.40
2023-02-14T13:54:31.168Z,0.20
2023-02-14T13:57:01.015Z,0.10
2023-02-14T13:59:34.260Z,0.40
2023-02-14T14:02:29.158Z,0.20
2023-02-14T14:04:57.342Z,0.50
2023-02-14T14:07:30.300Z,1.33
2023-02-14T14:10:00.191Z,0.25
2023-02-14T14:12:27.431Z,0.20
2023-02-14T14:15:06.766Z,0.22
2023-02-14T14:17:45.728Z,1.05
2023-02-14T14:20:21.924Z,5.25
2023-02-14T14:22:57.710Z,1.10
2023-02-14T14:25:41.214Z,6.63
2023-02-14T14:28:12.299Z,1.65
2023-02-14T14:30:44.698Z,2.50
2023-02-14T14:33:29.075Z,5.82
2023-02-14T14:36:00.774Z,2.13
2023-02-14T14:38:28.958Z,1.48
2023-02-14T14:40:56.759Z,0.98
2023-02-14T14:43:36.608Z,1.75
2023-02-14T14:46:05.105Z,3.95
2023-02-14T14:48:44.086Z,0.60
2023-02-14T14:51:25.839Z,9.07
2023-02-14T14:54:00.596Z,1.23
2023-02-14T14:56:34.406Z,1.85
2023-02-14T14:59:28.225Z,1.08
2023-02-14T15:01:55.303Z,8.45
2023-02-14T15:04:32.095Z,5.05
2023-02-14T15:07:19.592Z,1.05
2023-02-14T15:09:47.098Z,0.43
2023-02-14T15:12:41.098Z,0.22
2023-02-14T15:15:16.832Z,0.35
2023-02-14T15:17:45.029Z,1.08
2023-02-14T15:20:19.866Z,1.55
2023-02-14T15:22:52.659Z,0.45
2023-02-14T15:25:22.622Z,1.70
2023-02-14T15:27:50.656Z,1.80
2023-02-14T15:30:39.154Z,0.43
2023-02-14T15:33:07.672Z,0.60
2023-02-14T15:35:39.413Z,0.13
2023-02-14T15:38:08.027Z,0.30
2023-02-14T15:40:35.804Z,0.35
2023-02-14T15:43:33.199Z,0.32
2023-02-14T15:46:33.444Z,0.88
2023-02-14T15:49:05.520Z,1.65
2023-02-14T15:51:36.474Z,0.10
2023-02-14T15:54:31.414Z,0.88
2023-02-14T15:56:58.953Z,0.50
2023-02-14T15:59:29.992Z,0.30
2023-02-14T16:01:58.467Z,1.02
2023-02-14T16:04:28.645Z,0.20
2023-02-14T16:07:21.744Z,2.30
2023-02-14T16:09:49.931Z,2.97
2023-02-14T16:12:32.445Z,1.75
2023-02-14T16:15:21.528Z,0.90
2023-02-14T16:17:49.216Z,2.22
2023-02-14T16:20:27.603Z,2.63
2023-02-14T16:23:19.034Z,1.83
2023-02-14T16:25:46.929Z,0.15
2023-02-14T16:28:14.978Z,2.97
2023-02-14T16:30:44.408Z,0.30
2023-02-14T16:33:20.259Z,0.20
2023-02-14T16:35:49.003Z,0.30
2023-02-14T16:38:20.415Z,10.63
2023-02-14T16:40:50.731Z,51.22
2023-02-14T16:43:19.942Z,27.50
2023-02-14T16:45:47.898Z,42.05
2023-02-14T16:48:17.667Z,39.95
2023-02-14T16:50:46.329Z,44.30
2023-02-14T16:53:26.098Z,58.13
2023-02-14T16:55:54.921Z,61.00
2023-02-14T16:58:24.965Z,40.63
2023-02-14T17:00:52.341Z,49.55
2023-02-14T17:03:19.846Z,48.13
2023-02-14T17:05:47.156Z,52.67
2023-02-14T17:08:15.640Z,48.08
2023-02-14T17:10:45.373Z,52.08
2023-02-14T17:13:12.794Z,27.93
2023-02-14T17:15:41.023Z,34.70
2023-02-14T17:18:13.355Z,35.80
2023-02-14T17:20:40.776Z,10.18
2023-02-14T17:23:07.881Z,25.42
2023-02-14T17:25:35.648Z,46.40
2023-02-14T17:28:02.817Z,27.65
2023-02-14T17:30:29.988Z,31.30
2023-02-14T17:32:57.070Z,56.35
2023-02-14T17:35:24.246Z,50.22
2023-02-14T17:37:51.321Z,27.13
2023-02-14T17:40:18.558Z,52.70
2023-02-14T17:42:46.096Z,31.35
2023-02-14T17:45:13.273Z,44.10
2023-02-14T17:47:41.139Z,39.42
2023-02-14T17:50:08.696Z,47.70
2023-02-14T17:52:35.775Z,31.70
2023-02-14T17:55:04.047Z,18.15
2023-02-14T17:57:31.081Z,29.15
2023-02-14T17:59:58.672Z,35.15
2023-02-14T18:02:26.216Z,35.53
2023-02-14T18:04:53.289Z,23.77
2023-02-14T18:07:20.318Z,20.38
2023-02-14T18:09:47.536Z,37.15
2023-02-14T18:12:15.221Z,23.33
2023-02-14T18:14:42.688Z,28.70
2023-02-14T18:17:11.589Z,18.83
2023-02-14T18:19:38.997Z,29.02
2023-02-14T18:22:06.048Z,29.63
2023-02-14T18:24:33.146Z,29.30
2023-02-14T18:27:00.196Z,39.63
2023-02-14T18:29:27.221Z,28.83
2023-02-14T18:31:55.711Z,29.58
2023-02-14T18:34:23.069Z,20.73
2023-02-14T18:36:50.318Z,31.38
2023-02-14T18:39:17.892Z,35.90
2023-02-14T18:41:44.969Z,32.25
2023-02-14T18:44:13.720Z,28.35
2023-02-14T18:46:40.920Z,52.75
2023-02-14T18:49:08.776Z,18.65
2023-02-14T18:51:39.465Z,24.00
2023-02-14T18:54:07.406Z,23.73
2023-02-14T18:56:37.484Z,20.05
2023-02-14T18:59:08.338Z,15.30
2023-02-14T19:01:40.009Z,11.07
2023-02-14T19:04:09.466Z,25.02
2023-02-14T19:06:37.255Z,19.80
2023-02-14T19:09:17.613Z,22.83
2023-02-14T19:11:45.568Z,35.72
2023-02-14T19:14:13.823Z,39.92
2023-02-14T19:16:54.473Z,19.27
2023-02-14T19:19:25.892Z,12.68
2023-02-14T19:21:53.258Z,4.55
2023-02-14T19:24:22.057Z,29.88
2023-02-14T19:26:58.645Z,9.35
2023-02-14T19:29:34.459Z,13.80
2023-02-14T19:32:16.981Z,13.63
2023-02-14T19:37:44.873Z,13.55
2023-02-14T19:40:15.584Z,4.15
2023-02-14T19:42:48.099Z,3.92
2023-02-14T19:45:15.341Z,7.03
2023-02-14T19:47:46.987Z,5.22
2023-02-14T19:50:21.928Z,5.30
2023-02-14T19:52:51.264Z,12.55
2023-02-14T19:55:23.246Z,16.33
2023-02-14T19:57:50.624Z,5.13
2023-02-14T20:00:24.587Z,10.20
2023-02-14T20:02:52.217Z,32.25
2023-02-14T20:05:20.162Z,16.98
2023-02-14T20:07:52.041Z,22.75
2023-02-14T20:10:25.061Z,5.53
2023-02-14T20:12:52.614Z,29.15
2023-02-14T20:15:20.490Z,9.30
2023-02-14T20:17:56.458Z,12.35
2023-02-14T20:20:47.593Z,6.45
2023-02-14T20:23:36.139Z,3.22
2023-02-14T20:26:24.534Z,2.65
2023-02-14T20:29:38.909Z,6.32
2023-02-14T20:32:31.935Z,0.65
2023-02-14T20:37:57.968Z,10.70
2023-02-14T20:40:40.114Z,11.60
2023-02-14T20:43:26.630Z,7.97
2023-02-14T20:49:46.041Z,5.40
2023-02-14T20:55:55.466Z,12.70
2023-02-14T20:58:35.940Z,12.90
2023-02-14T21:01:26.812Z,7.55
2023-02-14T21:03:59.913Z,20.65
2023-02-14T21:09:28.763Z,10.77
2023-02-14T21:14:45.070Z,17.30
2023-02-14T21:17:26.172Z,20.00
2023-02-14T21:19:58.589Z,17.85
2023-02-14T21:25:10.672Z,9.95
2023-02-14T21:27:59.301Z,9.50
2023-02-14T21:30:34.664Z,7.47
2023-02-14T21:33:19.930Z,7.47
2023-02-14T21:35:48.885Z,7.30
2023-02-14T21:38:18.812Z,4.22
2023-02-14T21:41:06.747Z,4.55
2023-02-14T21:43:35.546Z,3.03
2023-02-14T21:46:07.873Z,3.00
2023-02-14T21:48:55.137Z,2.60
2023-02-14T21:51:27.890Z,3.95
2023-02-14T21:53:56.317Z,9.27
2023-02-14T21:56:44.502Z,9.82
2023-02-14T21:59:16.560Z,6.85
2023-02-14T22:01:57.296Z,8.10
2023-02-14T22:07:33.147Z,17.30
2023-02-14T22:10:10.931Z,5.15
2023-02-14T22:12:38.684Z,13.68
2023-02-14T22:15:08.366Z,5.78
2023-02-14T22:17:44.901Z,4.70
2023-02-14T22:21:00.360Z,7.18
2023-02-14T22:23:35.408Z,5.00
2023-02-14T22:26:29.015Z,7.93
2023-02-14T22:29:17.338Z,10.02
2023-02-14T22:31:45.778Z,1.90
2023-02-14T22:34:18.452Z,5.18
2023-02-14T22:36:52.918Z,6.70
2023-02-14T22:39:28.774Z,9.20
2023-02-14T22:42:07.144Z,4.32
2023-02-14T22:44:39.319Z,3.78
2023-02-14T22:47:10.093Z,9.70
2023-02-14T22:49:37.782Z,4.43
2023-02-14T22:54:53.259Z,10.30
2023-02-14T22:57:28.604Z,5.97
2023-02-14T23:00:12.268Z,10.88
2023-02-14T23:02:58.075Z,12.27
2023-02-14T23:05:32.420Z,5.18
2023-02-14T23:08:27.153Z,14.50
2023-02-14T23:10:55.413Z,3.92
2023-02-14T23:13:54.237Z,11.30
2023-02-14T23:16:49.095Z,6.55
2023-02-14T23:19:44.842Z,9.90
2023-02-14T23:22:36.627Z,8.32
2023-02-14T23:25:28.770Z,9.38
2023-02-14T23:28:01.145Z,4.05
2023-02-14T23:30:34.843Z,18.37
2023-02-14T23:33:30.861Z,3.95
2023-02-14T23:36:06.538Z,4.25
2023-02-14T23:38:37.283Z,3.63
2023-02-14T23:44:36.453Z,6.93
2023-02-14T23:47:14.079Z,6.82
2023-02-14T23:50:14.575Z,7.28
2023-02-14T23:52:45.462Z,6.65
2023-02-14T23:55:13.957Z,5.68
2023-02-14T23:57:47.221Z,5.22
